sensor_id;sensor_type;location;lat;lon;timestamp;temperature;humidity
6098;DHT22;3077;50.922;6.584;2022-12-10T00:01:42;0.80;1.00
6098;DHT22;3077;50.922;6.584;2022-12-10T00:04:08;0.80;1.00
6098;DHT22;3077;50.922;6.584;2022-12-10T00:06:35;0.70;1.00
6098;DHT22;3077;50.922;6.584;2022-12-10T00:09:04;0.60;1.00
6098;DHT22;3077;50.922;6.584;2022-12-10T00:11:30;0.60;1.00
6098;DHT22;3077;50.922;6.584;2022-12-10T00:13:56;0.50;1.00
6098;DHT22;3077;50.922;6.584;2022-12-10T00:16:25;0.50;1.00
6098;DHT22;3077;50.922;6.584;2022-12-10T00:18:51;0.50;1.00
6098;DHT22;3077;50.922;6.584;2022-12-10T00:21:20;0.60;1.00
6098;DHT22;3077;50.922;6.584;2022-12-10T00:23:47;0.60;1.00
6098;DHT22;3077;50.922;6.584;2022-12-10T00:26:22;0.50;1.00
6098;DHT22;3077;50.922;6.584;2022-12-10T00:28:48;0.40;1.00
6098;DHT22;3077;50.922;6.584;2022-12-10T00:31:18;0.30;1.00
6098;DHT22;3077;50.922;6.584;2022-12-10T00:33:45;0.20;1.00
6098;DHT22;3077;50.922;6.584;2022-12-10T00:36:13;0.30;7.30
6098;DHT22;3077;50.922;6.584;2022-12-10T00:38:40;0.30;4.30
6098;DHT22;3077;50.922;6.584;2022-12-10T00:41:06;0.30;3.60
6098;DHT22;3077;50.922;6.584;2022-12-10T00:43:31;0.30;1.00
6098;DHT22;3077;50.922;6.584;2022-12-10T00:45:57;0.20;1.00
6098;DHT22;3077;50.922;6.584;2022-12-10T00:48:23;0.10;1.00
6098;DHT22;3077;50.922;6.584;2022-12-10T00:51:00;0.00;1.00
6098;DHT22;3077;50.922;6.584;2022-12-10T00:53:26;0.00;1.00
6098;DHT22;3077;50.922;6.584;2022-12-10T00:55:53;0.00;1.00
6098;DHT22;3077;50.922;6.584;2022-12-10T00:58:19;0.00;1.00
6098;DHT22;3077;50.922;6.584;2022-12-10T01:00:45;0.00;1.00
6098;DHT22;3077;50.922;6.584;2022-12-10T01:03:11;-0.10;1.00
6098;DHT22;3077;50.922;6.584;2022-12-10T01:05:36;-0.20;1.00
6098;DHT22;3077;50.922;6.584;2022-12-10T01:08:02;-0.30;1.00
6098;DHT22;3077;50.922;6.584;2022-12-10T01:10:28;-0.40;12.20
6098;DHT22;3077;50.922;6.584;2022-12-10T01:12:53;-0.50;21.10
6098;DHT22;3077;50.922;6.584;2022-12-10T01:15:19;-0.50;41.70
6098;DHT22;3077;50.922;6.584;2022-12-10T01:17:44;-0.40;73.20
6098;DHT22;3077;50.922;6.584;2022-12-10T01:20:10;-0.50;92.30
6098;DHT22;3077;50.922;6.584;2022-12-10T01:22:37;-0.50;93.80
6098;DHT22;3077;50.922;6.584;2022-12-10T01:25:03;-0.60;96.40
6098;DHT22;3077;50.922;6.584;2022-12-10T01:27:29;-0.50;99.90
6098;DHT22;3077;50.922;6.584;2022-12-10T01:29:55;-0.50;95.50
6098;DHT22;3077;50.922;6.584;2022-12-10T01:32:20;-0.50;72.90
6098;DHT22;3077;50.922;6.584;2022-12-10T01:34:46;-0.50;48.50
6098;DHT22;3077;50.922;6.584;2022-12-10T01:37:12;-0.50;33.30
6098;DHT22;3077;50.922;6.584;2022-12-10T01:39:37;-0.50;22.60
6098;DHT22;3077;50.922;6.584;2022-12-10T01:42:03;-0.50;21.70
6098;DHT22;3077;50.922;6.584;2022-12-10T01:46:56;-0.40;18.80
6098;DHT22;3077;50.922;6.584;2022-12-10T01:49:25;-0.40;12.70
6098;DHT22;3077;50.922;6.584;2022-12-10T01:51:54;-0.40;7.90
6098;DHT22;3077;50.922;6.584;2022-12-10T01:54:25;-0.30;5.20
6098;DHT22;3077;50.922;6.584;2022-12-10T01:56:58;-0.30;3.70
6098;DHT22;3077;50.922;6.584;2022-12-10T01:59:24;-0.30;2.30
6098;DHT22;3077;50.922;6.584;2022-12-10T02:02:17;-0.40;1.00
6098;DHT22;3077;50.922;6.584;2022-12-10T02:16:12;-0.40;5.80
6098;DHT22;3077;50.922;6.584;2022-12-10T02:21:24;-0.40;12.20
6098;DHT22;3077;50.922;6.584;2022-12-10T02:23:56;-0.50;14.80
6098;DHT22;3077;50.922;6.584;2022-12-10T02:29:18;-0.60;29.20
6098;DHT22;3077;50.922;6.584;2022-12-10T02:32:06;-0.70;49.80
6098;DHT22;3077;50.922;6.584;2022-12-10T02:34:40;-0.70;70.00
6098;DHT22;3077;50.922;6.584;2022-12-10T02:37:14;-0.70;95.30
6098;DHT22;3077;50.922;6.584;2022-12-10T02:39:45;-0.80;99.90
6098;DHT22;3077;50.922;6.584;2022-12-10T02:42:15;-0.80;99.90
6098;DHT22;3077;50.922;6.584;2022-12-10T02:44:42;-0.80;99.90
6098;DHT22;3077;50.922;6.584;2022-12-10T02:47:10;-0.80;99.90
6098;DHT22;3077;50.922;6.584;2022-12-10T02:49:37;-0.80;96.20
6098;DHT22;3077;50.922;6.584;2022-12-10T02:52:08;-0.80;91.80
6098;DHT22;3077;50.922;6.584;2022-12-10T02:54:42;-0.70;92.60
6098;DHT22;3077;50.922;6.584;2022-12-10T02:59:49;-0.70;71.70
6098;DHT22;3077;50.922;6.584;2022-12-10T03:06:05;-0.90;77.90
6098;DHT22;3077;50.922;6.584;2022-12-10T03:08:48;-0.90;97.30
6098;DHT22;3077;50.922;6.584;2022-12-10T03:11:20;-0.80;99.90
6098;DHT22;3077;50.922;6.584;2022-12-10T03:16:16;-0.70;99.90
6098;DHT22;3077;50.922;6.584;2022-12-10T03:18:43;-0.80;99.90
6098;DHT22;3077;50.922;6.584;2022-12-10T03:21:11;-0.80;99.90
6098;DHT22;3077;50.922;6.584;2022-12-10T03:23:40;-0.80;99.90
6098;DHT22;3077;50.922;6.584;2022-12-10T03:26:08;-0.80;99.90
6098;DHT22;3077;50.922;6.584;2022-12-10T03:28:39;-0.70;99.90
6098;DHT22;3077;50.922;6.584;2022-12-10T03:31:09;-0.70;99.90
6098;DHT22;3077;50.922;6.584;2022-12-10T03:33:35;-0.70;99.90
6098;DHT22;3077;50.922;6.584;2022-12-10T03:36:01;-0.70;99.90
6098;DHT22;3077;50.922;6.584;2022-12-10T03:38:27;-0.70;99.90
6098;DHT22;3077;50.922;6.584;2022-12-10T03:40:53;-0.70;99.90
6098;DHT22;3077;50.922;6.584;2022-12-10T03:43:18;-0.70;99.90
6098;DHT22;3077;50.922;6.584;2022-12-10T03:45:46;-0.80;99.90
6098;DHT22;3077;50.922;6.584;2022-12-10T03:48:11;-0.90;99.90
6098;DHT22;3077;50.922;6.584;2022-12-10T03:50:37;-1.00;99.90
6098;DHT22;3077;50.922;6.584;2022-12-10T03:53:02;-1.20;99.90
6098;DHT22;3077;50.922;6.584;2022-12-10T03:55:28;-1.20;99.90
6098;DHT22;3077;50.922;6.584;2022-12-10T03:57:53;-1.20;99.90
6098;DHT22;3077;50.922;6.584;2022-12-10T04:00:19;-1.20;99.90
6098;DHT22;3077;50.922;6.584;2022-12-10T04:02:45;-1.20;99.90
6098;DHT22;3077;50.922;6.584;2022-12-10T04:05:10;-1.30;99.90
6098;DHT22;3077;50.922;6.584;2022-12-10T04:07:36;-1.20;99.90
6098;DHT22;3077;50.922;6.584;2022-12-10T04:10:03;-1.30;99.90
6098;DHT22;3077;50.922;6.584;2022-12-10T04:12:28;-1.20;99.90
6098;DHT22;3077;50.922;6.584;2022-12-10T04:14:54;-1.20;99.90
6098;DHT22;3077;50.922;6.584;2022-12-10T04:17:38;-1.10;99.90
6098;DHT22;3077;50.922;6.584;2022-12-10T04:20:04;-1.00;99.90
6098;DHT22;3077;50.922;6.584;2022-12-10T04:22:30;-1.00;99.90
6098;DHT22;3077;50.922;6.584;2022-12-10T04:25:14;-1.00;99.90
6098;DHT22;3077;50.922;6.584;2022-12-10T04:27:58;-1.10;99.90
6098;DHT22;3077;50.922;6.584;2022-12-10T04:30:24;-1.10;99.90
6098;DHT22;3077;50.922;6.584;2022-12-10T04:32:50;-1.00;99.90
6098;DHT22;3077;50.922;6.584;2022-12-10T04:35:15;-0.90;99.90
6098;DHT22;3077;50.922;6.584;2022-12-10T04:37:41;-0.90;99.90
6098;DHT22;3077;50.922;6.584;2022-12-10T04:40:07;-0.80;99.90
6098;DHT22;3077;50.922;6.584;2022-12-10T04:42:32;-0.80;99.90
6098;DHT22;3077;50.922;6.584;2022-12-10T04:44:58;-0.80;99.90
6098;DHT22;3077;50.922;6.584;2022-12-10T04:47:24;-0.70;99.90
6098;DHT22;3077;50.922;6.584;2022-12-10T04:49:51;-0.60;99.90
6098;DHT22;3077;50.922;6.584;2022-12-10T04:52:17;-0.50;99.90
6098;DHT22;3077;50.922;6.584;2022-12-10T04:54:43;-0.40;99.90
6098;DHT22;3077;50.922;6.584;2022-12-10T04:57:09;-0.30;99.90
6098;DHT22;3077;50.922;6.584;2022-12-10T04:59:36;-0.20;99.90
6098;DHT22;3077;50.922;6.584;2022-12-10T05:02:03;-0.10;99.90
6098;DHT22;3077;50.922;6.584;2022-12-10T05:04:28;-0.10;99.90
6098;DHT22;3077;50.922;6.584;2022-12-10T05:06:54;-0.10;99.90
6098;DHT22;3077;50.922;6.584;2022-12-10T05:09:19;0.00;99.90
6098;DHT22;3077;50.922;6.584;2022-12-10T05:11:45;-0.10;99.90
6098;DHT22;3077;50.922;6.584;2022-12-10T05:14:12;-0.10;99.90
6098;DHT22;3077;50.922;6.584;2022-12-10T05:16:38;-0.10;99.90
6098;DHT22;3077;50.922;6.584;2022-12-10T05:19:03;-0.10;99.90
6098;DHT22;3077;50.922;6.584;2022-12-10T05:21:29;0.00;99.90
6098;DHT22;3077;50.922;6.584;2022-12-10T05:24:15;0.00;99.90
6098;DHT22;3077;50.922;6.584;2022-12-10T05:26:41;-0.10;99.90
6098;DHT22;3077;50.922;6.584;2022-12-10T05:29:07;-0.10;99.90
6098;DHT22;3077;50.922;6.584;2022-12-10T05:31:32;-0.10;99.90
6098;DHT22;3077;50.922;6.584;2022-12-10T05:33:58;0.00;99.90
6098;DHT22;3077;50.922;6.584;2022-12-10T05:36:26;0.10;99.90
6098;DHT22;3077;50.922;6.584;2022-12-10T05:38:53;0.10;99.90
6098;DHT22;3077;50.922;6.584;2022-12-10T05:41:25;0.10;99.90
6098;DHT22;3077;50.922;6.584;2022-12-10T05:43:53;0.00;99.90
6098;DHT22;3077;50.922;6.584;2022-12-10T05:46:21;-0.10;99.90
6098;DHT22;3077;50.922;6.584;2022-12-10T05:48:48;-0.20;99.90
6098;DHT22;3077;50.922;6.584;2022-12-10T05:51:16;-0.20;99.90
6098;DHT22;3077;50.922;6.584;2022-12-10T05:53:42;-0.30;99.90
6098;DHT22;3077;50.922;6.584;2022-12-10T05:56:10;-0.30;99.90
6098;DHT22;3077;50.922;6.584;2022-12-10T05:58:37;-0.30;99.90
6098;DHT22;3077;50.922;6.584;2022-12-10T06:01:18;-0.30;99.90
6098;DHT22;3077;50.922;6.584;2022-12-10T06:03:44;-0.40;99.90
6098;DHT22;3077;50.922;6.584;2022-12-10T06:06:10;-0.40;99.90
6098;DHT22;3077;50.922;6.584;2022-12-10T06:08:36;-0.30;99.90
6098;DHT22;3077;50.922;6.584;2022-12-10T06:11:08;-0.30;99.90
6098;DHT22;3077;50.922;6.584;2022-12-10T06:13:34;-0.30;99.90
6098;DHT22;3077;50.922;6.584;2022-12-10T06:16:03;-0.20;99.90
6098;DHT22;3077;50.922;6.584;2022-12-10T06:18:29;-0.20;99.90
6098;DHT22;3077;50.922;6.584;2022-12-10T06:20:54;-0.10;99.90
6098;DHT22;3077;50.922;6.584;2022-12-10T06:23:20;-0.10;99.90
6098;DHT22;3077;50.922;6.584;2022-12-10T06:25:46;0.00;99.90
6098;DHT22;3077;50.922;6.584;2022-12-10T06:28:11;0.00;99.90
6098;DHT22;3077;50.922;6.584;2022-12-10T06:30:37;0.00;99.90
6098;DHT22;3077;50.922;6.584;2022-12-10T06:33:02;0.10;99.90
6098;DHT22;3077;50.922;6.584;2022-12-10T06:35:28;0.00;99.90
6098;DHT22;3077;50.922;6.584;2022-12-10T06:37:53;0.10;99.90
6098;DHT22;3077;50.922;6.584;2022-12-10T06:40:19;0.10;99.90
6098;DHT22;3077;50.922;6.584;2022-12-10T06:42:45;0.10;99.90
6098;DHT22;3077;50.922;6.584;2022-12-10T06:45:10;0.10;99.90
6098;DHT22;3077;50.922;6.584;2022-12-10T06:47:36;0.10;99.90
6098;DHT22;3077;50.922;6.584;2022-12-10T06:50:02;0.20;99.90
6098;DHT22;3077;50.922;6.584;2022-12-10T06:52:28;0.30;99.90
6098;DHT22;3077;50.922;6.584;2022-12-10T06:54:53;0.30;99.90
6098;DHT22;3077;50.922;6.584;2022-12-10T06:57:20;0.30;99.90
6098;DHT22;3077;50.922;6.584;2022-12-10T06:59:46;0.20;99.90
6098;DHT22;3077;50.922;6.584;2022-12-10T07:02:12;0.10;99.90
6098;DHT22;3077;50.922;6.584;2022-12-10T07:04:37;0.10;99.90
6098;DHT22;3077;50.922;6.584;2022-12-10T07:07:04;0.10;99.90
6098;DHT22;3077;50.922;6.584;2022-12-10T07:09:29;0.00;99.90
6098;DHT22;3077;50.922;6.584;2022-12-10T07:11:57;0.00;99.90
6098;DHT22;3077;50.922;6.584;2022-12-10T07:14:23;0.00;99.90
6098;DHT22;3077;50.922;6.584;2022-12-10T07:16:48;0.00;99.90
6098;DHT22;3077;50.922;6.584;2022-12-10T07:19:14;0.00;99.90
6098;DHT22;3077;50.922;6.584;2022-12-10T07:21:41;0.00;99.90
6098;DHT22;3077;50.922;6.584;2022-12-10T07:24:10;0.10;99.90
6098;DHT22;3077;50.922;6.584;2022-12-10T07:26:38;0.10;99.90
6098;DHT22;3077;50.922;6.584;2022-12-10T07:29:05;0.10;99.90
6098;DHT22;3077;50.922;6.584;2022-12-10T07:31:33;0.00;99.90
6098;DHT22;3077;50.922;6.584;2022-12-10T07:33:59;-0.10;99.90
6098;DHT22;3077;50.922;6.584;2022-12-10T07:36:25;-0.10;99.90
6098;DHT22;3077;50.922;6.584;2022-12-10T07:38:52;-0.10;99.90
6098;DHT22;3077;50.922;6.584;2022-12-10T07:41:18;-0.10;99.90
6098;DHT22;3077;50.922;6.584;2022-12-10T07:43:45;0.00;99.90
6098;DHT22;3077;50.922;6.584;2022-12-10T07:46:13;0.00;99.90
6098;DHT22;3077;50.922;6.584;2022-12-10T07:48:40;0.10;99.90
6098;DHT22;3077;50.922;6.584;2022-12-10T07:51:06;0.10;99.90
6098;DHT22;3077;50.922;6.584;2022-12-10T07:53:33;0.20;99.90
6098;DHT22;3077;50.922;6.584;2022-12-10T07:55:59;0.20;99.90
6098;DHT22;3077;50.922;6.584;2022-12-10T07:58:24;0.30;99.90
6098;DHT22;3077;50.922;6.584;2022-12-10T08:00:50;0.40;99.90
6098;DHT22;3077;50.922;6.584;2022-12-10T08:03:15;0.30;99.90
6098;DHT22;3077;50.922;6.584;2022-12-10T08:05:41;0.30;99.90
6098;DHT22;3077;50.922;6.584;2022-12-10T08:08:07;0.30;99.90
6098;DHT22;3077;50.922;6.584;2022-12-10T08:10:36;0.40;99.90
6098;DHT22;3077;50.922;6.584;2022-12-10T08:13:03;0.30;99.90
6098;DHT22;3077;50.922;6.584;2022-12-10T08:15:29;0.40;99.90
6098;DHT22;3077;50.922;6.584;2022-12-10T08:17:55;0.50;99.90
6098;DHT22;3077;50.922;6.584;2022-12-10T08:20:22;0.60;99.90
6098;DHT22;3077;50.922;6.584;2022-12-10T08:22:48;0.70;99.90
6098;DHT22;3077;50.922;6.584;2022-12-10T08:25:13;0.70;99.90
6098;DHT22;3077;50.922;6.584;2022-12-10T08:27:39;0.70;99.90
6098;DHT22;3077;50.922;6.584;2022-12-10T08:30:05;0.70;99.90
6098;DHT22;3077;50.922;6.584;2022-12-10T08:32:31;0.80;99.90
6098;DHT22;3077;50.922;6.584;2022-12-10T08:34:57;0.80;99.90
6098;DHT22;3077;50.922;6.584;2022-12-10T08:37:22;0.90;99.90
6098;DHT22;3077;50.922;6.584;2022-12-10T08:39:48;1.00;99.90
6098;DHT22;3077;50.922;6.584;2022-12-10T08:42:13;1.00;99.90
6098;DHT22;3077;50.922;6.584;2022-12-10T08:44:39;1.00;99.90
6098;DHT22;3077;50.922;6.584;2022-12-10T08:47:05;1.00;99.90
6098;DHT22;3077;50.922;6.584;2022-12-10T08:49:31;1.10;99.90
6098;DHT22;3077;50.922;6.584;2022-12-10T08:51:56;1.10;99.90
6098;DHT22;3077;50.922;6.584;2022-12-10T08:54:22;1.10;99.90
6098;DHT22;3077;50.922;6.584;2022-12-10T08:56:47;1.10;99.90
6098;DHT22;3077;50.922;6.584;2022-12-10T08:59:13;1.20;99.90
6098;DHT22;3077;50.922;6.584;2022-12-10T09:01:38;1.20;99.90
6098;DHT22;3077;50.922;6.584;2022-12-10T09:04:04;1.30;99.90
6098;DHT22;3077;50.922;6.584;2022-12-10T09:06:30;1.30;99.90
6098;DHT22;3077;50.922;6.584;2022-12-10T09:08:56;1.30;99.90
6098;DHT22;3077;50.922;6.584;2022-12-10T09:11:26;1.40;99.90
6098;DHT22;3077;50.922;6.584;2022-12-10T09:13:53;1.40;99.90
6098;DHT22;3077;50.922;6.584;2022-12-10T09:16:19;1.40;99.90
6098;DHT22;3077;50.922;6.584;2022-12-10T09:18:44;1.40;99.90
6098;DHT22;3077;50.922;6.584;2022-12-10T09:21:13;1.50;99.90
6098;DHT22;3077;50.922;6.584;2022-12-10T09:23:40;1.50;99.90
6098;DHT22;3077;50.922;6.584;2022-12-10T09:26:11;1.50;99.90
6098;DHT22;3077;50.922;6.584;2022-12-10T09:28:37;1.50;99.90
6098;DHT22;3077;50.922;6.584;2022-12-10T09:31:04;1.50;99.90
6098;DHT22;3077;50.922;6.584;2022-12-10T09:33:31;1.60;99.90
6098;DHT22;3077;50.922;6.584;2022-12-10T09:35:57;1.60;99.90
6098;DHT22;3077;50.922;6.584;2022-12-10T09:38:23;1.50;99.90
6098;DHT22;3077;50.922;6.584;2022-12-10T09:47:01;1.70;99.90
6098;DHT22;3077;50.922;6.584;2022-12-10T09:49:40;1.80;99.90
6098;DHT22;3077;50.922;6.584;2022-12-10T09:52:23;2.00;99.90
6098;DHT22;3077;50.922;6.584;2022-12-10T09:54:58;2.10;99.90
6098;DHT22;3077;50.922;6.584;2022-12-10T09:59:59;2.20;99.90
6098;DHT22;3077;50.922;6.584;2022-12-10T10:02:30;2.10;99.90
6098;DHT22;3077;50.922;6.584;2022-12-10T10:05:10;2.10;99.90
6098;DHT22;3077;50.922;6.584;2022-12-10T10:07:45;2.20;99.90
6098;DHT22;3077;50.922;6.584;2022-12-10T10:10:30;2.30;99.90
6098;DHT22;3077;50.922;6.584;2022-12-10T10:13:27;2.40;99.90
6098;DHT22;3077;50.922;6.584;2022-12-10T10:15:54;2.60;99.90
6098;DHT22;3077;50.922;6.584;2022-12-10T10:18:41;2.70;99.90
6098;DHT22;3077;50.922;6.584;2022-12-10T10:21:28;2.70;99.90
6098;DHT22;3077;50.922;6.584;2022-12-10T10:23:56;2.60;99.90
6098;DHT22;3077;50.922;6.584;2022-12-10T10:26:25;2.60;99.90
6098;DHT22;3077;50.922;6.584;2022-12-10T10:29:05;2.60;99.90
6098;DHT22;3077;50.922;6.584;2022-12-10T10:31:32;2.70;99.90
6098;DHT22;3077;50.922;6.584;2022-12-10T10:34:01;2.70;99.90
6098;DHT22;3077;50.922;6.584;2022-12-10T10:36:34;2.80;99.60
6098;DHT22;3077;50.922;6.584;2022-12-10T10:39:27;2.80;76.90
6098;DHT22;3077;50.922;6.584;2022-12-10T10:41:54;2.60;54.30
6098;DHT22;3077;50.922;6.584;2022-12-10T10:44:34;2.50;40.90
6098;DHT22;3077;50.922;6.584;2022-12-10T10:47:00;2.40;52.30
6098;DHT22;3077;50.922;6.584;2022-12-10T10:49:30;2.60;2.30
6098;DHT22;3077;50.922;6.584;2022-12-10T10:52:34;2.70;1.00
6098;DHT22;3077;50.922;6.584;2022-12-10T10:54:52;3.00;1.00
6098;DHT22;3077;50.922;6.584;2022-12-10T10:57:32;3.40;1.00
6098;DHT22;3077;50.922;6.584;2022-12-10T11:00:25;3.80;1.00
6098;DHT22;3077;50.922;6.584;2022-12-10T11:02:50;4.20;99.90
6098;DHT22;3077;50.922;6.584;2022-12-10T11:05:17;4.40;99.90
6098;DHT22;3077;50.922;6.584;2022-12-10T11:07:45;4.60;93.10
6098;DHT22;3077;50.922;6.584;2022-12-10T11:10:24;5.00;77.90
6098;DHT22;3077;50.922;6.584;2022-12-10T11:15:38;5.60;99.90
6098;DHT22;3077;50.922;6.584;2022-12-10T11:18:33;6.20;99.90
6098;DHT22;3077;50.922;6.584;2022-12-10T11:23:43;7.40;99.90
6098;DHT22;3077;50.922;6.584;2022-12-10T11:51:48;7.30;99.90
6098;DHT22;3077;50.922;6.584;2022-12-10T12:00:23;9.00;99.90
6098;DHT22;3077;50.922;6.584;2022-12-10T12:02:55;9.50;1.00
6098;DHT22;3077;50.922;6.584;2022-12-10T12:14:36;10.70;99.90
6098;DHT22;3077;50.922;6.584;2022-12-10T12:17:11;11.20;99.90
6098;DHT22;3077;50.922;6.584;2022-12-10T12:19:44;11.40;99.90
6098;DHT22;3077;50.922;6.584;2022-12-10T12:22:35;11.90;99.90
6098;DHT22;3077;50.922;6.584;2022-12-10T12:25:08;12.20;99.90
6098;DHT22;3077;50.922;6.584;2022-12-10T12:27:48;12.30;99.90
6098;DHT22;3077;50.922;6.584;2022-12-10T12:30:18;12.60;99.90
6098;DHT22;3077;50.922;6.584;2022-12-10T12:36:02;12.90;99.90
6098;DHT22;3077;50.922;6.584;2022-12-10T12:38:32;13.30;99.90
6098;DHT22;3077;50.922;6.584;2022-12-10T12:41:04;13.40;99.90
6098;DHT22;3077;50.922;6.584;2022-12-10T12:46:18;13.80;99.90
6098;DHT22;3077;50.922;6.584;2022-12-10T12:51:28;13.60;99.90
6098;DHT22;3077;50.922;6.584;2022-12-10T12:53:55;13.70;99.90
6098;DHT22;3077;50.922;6.584;2022-12-10T13:02:08;11.80;99.90
6098;DHT22;3077;50.922;6.584;2022-12-10T13:04:39;10.70;99.90
6098;DHT22;3077;50.922;6.584;2022-12-10T13:07:26;10.00;99.90
6098;DHT22;3077;50.922;6.584;2022-12-10T13:12:47;9.10;99.90
6098;DHT22;3077;50.922;6.584;2022-12-10T13:15:14;8.80;99.90
6098;DHT22;3077;50.922;6.584;2022-12-10T13:18:19;8.50;99.90
6098;DHT22;3077;50.922;6.584;2022-12-10T13:21:30;8.20;1.00
6098;DHT22;3077;50.922;6.584;2022-12-10T13:24:09;8.00;1.00
6098;DHT22;3077;50.922;6.584;2022-12-10T13:26:35;7.70;1.00
6098;DHT22;3077;50.922;6.584;2022-12-10T13:34:41;8.90;1.00
6098;DHT22;3077;50.922;6.584;2022-12-10T13:39:52;9.80;99.90
6098;DHT22;3077;50.922;6.584;2022-12-10T13:42:26;9.70;99.90
6098;DHT22;3077;50.922;6.584;2022-12-10T13:45:34;9.40;99.90
6098;DHT22;3077;50.922;6.584;2022-12-10T14:04:39;7.20;99.90
6098;DHT22;3077;50.922;6.584;2022-12-10T14:07:11;7.70;99.90
6098;DHT22;3077;50.922;6.584;2022-12-10T14:09:50;8.20;1.00
6098;DHT22;3077;50.922;6.584;2022-12-10T14:12:19;8.70;1.00
6098;DHT22;3077;50.922;6.584;2022-12-10T14:15:00;9.30;1.00
6098;DHT22;3077;50.922;6.584;2022-12-10T14:17:41;10.00;1.00
6098;DHT22;3077;50.922;6.584;2022-12-10T14:20:13;10.20;99.90
6098;DHT22;3077;50.922;6.584;2022-12-10T14:22:46;9.80;99.90
6098;DHT22;3077;50.922;6.584;2022-12-10T14:25:15;8.60;99.90
6098;DHT22;3077;50.922;6.584;2022-12-10T14:27:41;7.50;1.00
6098;DHT22;3077;50.922;6.584;2022-12-10T14:30:26;6.50;1.00
6098;DHT22;3077;50.922;6.584;2022-12-10T14:32:55;5.50;1.00
6098;DHT22;3077;50.922;6.584;2022-12-10T14:35:27;4.90;1.00
6098;DHT22;3077;50.922;6.584;2022-12-10T14:37:57;4.50;99.90
6098;DHT22;3077;50.922;6.584;2022-12-10T14:40:27;4.30;1.00
6098;DHT22;3077;50.922;6.584;2022-12-10T14:44:01;4.10;1.00
6098;DHT22;3077;50.922;6.584;2022-12-10T14:46:00;3.80;1.00
6098;DHT22;3077;50.922;6.584;2022-12-10T14:48:27;3.60;99.90
6098;DHT22;3077;50.922;6.584;2022-12-10T14:50:53;3.30;1.00
6098;DHT22;3077;50.922;6.584;2022-12-10T14:53:26;3.10;1.00
6098;DHT22;3077;50.922;6.584;2022-12-10T14:56:14;3.00;1.00
6098;DHT22;3077;50.922;6.584;2022-12-10T14:58:49;2.90;99.90
6098;DHT22;3077;50.922;6.584;2022-12-10T15:03:53;2.60;1.00
6098;DHT22;3077;50.922;6.584;2022-12-10T15:06:19;2.70;99.90
6098;DHT22;3077;50.922;6.584;2022-12-10T15:08:46;2.60;99.90
6098;DHT22;3077;50.922;6.584;2022-12-10T15:11:17;2.60;1.00
6098;DHT22;3077;50.922;6.584;2022-12-10T15:13:46;2.60;1.00
6098;DHT22;3077;50.922;6.584;2022-12-10T15:16:17;2.40;1.00
6098;DHT22;3077;50.922;6.584;2022-12-10T15:18:43;2.30;1.00
6098;DHT22;3077;50.922;6.584;2022-12-10T15:21:16;2.20;99.90
6098;DHT22;3077;50.922;6.584;2022-12-10T15:23:45;2.20;99.90
6098;DHT22;3077;50.922;6.584;2022-12-10T15:26:22;2.10;99.90
6098;DHT22;3077;50.922;6.584;2022-12-10T15:28:50;2.10;99.90
6098;DHT22;3077;50.922;6.584;2022-12-10T15:33:49;2.10;99.90
6098;DHT22;3077;50.922;6.584;2022-12-10T15:39:21;2.10;99.90
6098;DHT22;3077;50.922;6.584;2022-12-10T15:41:52;2.00;99.90
6098;DHT22;3077;50.922;6.584;2022-12-10T15:49:24;1.90;1.00
6098;DHT22;3077;50.922;6.584;2022-12-10T15:51:50;1.90;99.90
6098;DHT22;3077;50.922;6.584;2022-12-10T15:56:49;1.80;1.00
6098;DHT22;3077;50.922;6.584;2022-12-10T15:59:14;1.80;1.00
6098;DHT22;3077;50.922;6.584;2022-12-10T16:01:40;1.80;1.00
6098;DHT22;3077;50.922;6.584;2022-12-10T16:04:05;1.90;1.00
6098;DHT22;3077;50.922;6.584;2022-12-10T16:06:31;1.90;1.00
6098;DHT22;3077;50.922;6.584;2022-12-10T16:08:57;1.90;1.00
6098;DHT22;3077;50.922;6.584;2022-12-10T16:11:22;1.90;1.00
6098;DHT22;3077;50.922;6.584;2022-12-10T16:13:52;1.90;1.00
6098;DHT22;3077;50.922;6.584;2022-12-10T16:16:19;1.90;1.00
6098;DHT22;3077;50.922;6.584;2022-12-10T16:18:44;2.00;1.00
6098;DHT22;3077;50.922;6.584;2022-12-10T16:21:11;2.10;1.00
6098;DHT22;3077;50.922;6.584;2022-12-10T16:23:37;2.10;1.00
6098;DHT22;3077;50.922;6.584;2022-12-10T16:28:37;2.20;1.00
6098;DHT22;3077;50.922;6.584;2022-12-10T16:31:02;2.20;1.00
6098;DHT22;3077;50.922;6.584;2022-12-10T16:33:28;2.20;1.00
6098;DHT22;3077;50.922;6.584;2022-12-10T16:35:54;2.30;1.00
6098;DHT22;3077;50.922;6.584;2022-12-10T16:38:21;2.30;1.00
6098;DHT22;3077;50.922;6.584;2022-12-10T16:40:48;2.30;99.90
6098;DHT22;3077;50.922;6.584;2022-12-10T16:43:17;2.30;99.90
6098;DHT22;3077;50.922;6.584;2022-12-10T16:45:43;2.30;99.90
6098;DHT22;3077;50.922;6.584;2022-12-10T16:48:08;2.30;99.90
6098;DHT22;3077;50.922;6.584;2022-12-10T16:50:34;2.30;99.90
6098;DHT22;3077;50.922;6.584;2022-12-10T16:53:06;2.30;99.90
6098;DHT22;3077;50.922;6.584;2022-12-10T16:55:36;2.20;99.90
6098;DHT22;3077;50.922;6.584;2022-12-10T16:58:02;2.30;99.90
6098;DHT22;3077;50.922;6.584;2022-12-10T17:00:28;2.20;99.90
6098;DHT22;3077;50.922;6.584;2022-12-10T17:02:53;2.30;99.90
6098;DHT22;3077;50.922;6.584;2022-12-10T17:05:35;2.30;99.90
6098;DHT22;3077;50.922;6.584;2022-12-10T17:08:01;2.20;99.90
6098;DHT22;3077;50.922;6.584;2022-12-10T17:10:27;2.30;99.90
6098;DHT22;3077;50.922;6.584;2022-12-10T17:13:13;2.30;99.90
6098;DHT22;3077;50.922;6.584;2022-12-10T17:15:41;2.20;99.90
6098;DHT22;3077;50.922;6.584;2022-12-10T17:18:13;2.20;99.90
6098;DHT22;3077;50.922;6.584;2022-12-10T17:20:39;2.20;99.90
6098;DHT22;3077;50.922;6.584;2022-12-10T17:23:04;2.20;99.90
6098;DHT22;3077;50.922;6.584;2022-12-10T17:25:30;2.20;99.90
6098;DHT22;3077;50.922;6.584;2022-12-10T17:27:56;2.20;99.90
6098;DHT22;3077;50.922;6.584;2022-12-10T17:30:22;2.10;99.90
6098;DHT22;3077;50.922;6.584;2022-12-10T17:32:48;2.20;99.90
6098;DHT22;3077;50.922;6.584;2022-12-10T17:35:14;2.20;99.90
6098;DHT22;3077;50.922;6.584;2022-12-10T17:37:40;2.10;99.90
6098;DHT22;3077;50.922;6.584;2022-12-10T17:40:17;2.00;99.90
6098;DHT22;3077;50.922;6.584;2022-12-10T17:42:44;2.10;1.00
6098;DHT22;3077;50.922;6.584;2022-12-10T17:45:13;2.20;99.90
6098;DHT22;3077;50.922;6.584;2022-12-10T17:47:39;2.20;99.90
6098;DHT22;3077;50.922;6.584;2022-12-10T17:50:28;2.20;99.90
6098;DHT22;3077;50.922;6.584;2022-12-10T17:52:55;2.10;99.90
6098;DHT22;3077;50.922;6.584;2022-12-10T17:55:23;1.90;99.90
6098;DHT22;3077;50.922;6.584;2022-12-10T17:57:49;1.90;99.90
6098;DHT22;3077;50.922;6.584;2022-12-10T18:00:18;1.90;1.00
6098;DHT22;3077;50.922;6.584;2022-12-10T18:02:44;1.90;1.00
6098;DHT22;3077;50.922;6.584;2022-12-10T18:05:10;2.00;1.00
6098;DHT22;3077;50.922;6.584;2022-12-10T18:07:35;2.20;1.00
6098;DHT22;3077;50.922;6.584;2022-12-10T18:10:02;2.20;1.00
6098;DHT22;3077;50.922;6.584;2022-12-10T18:12:28;2.30;1.00
6098;DHT22;3077;50.922;6.584;2022-12-10T18:14:53;2.30;99.90
6098;DHT22;3077;50.922;6.584;2022-12-10T18:17:19;2.30;99.90
6098;DHT22;3077;50.922;6.584;2022-12-10T18:19:45;2.30;99.90
6098;DHT22;3077;50.922;6.584;2022-12-10T18:22:10;2.30;99.90
6098;DHT22;3077;50.922;6.584;2022-12-10T18:24:36;2.20;99.90
6098;DHT22;3077;50.922;6.584;2022-12-10T18:27:02;2.20;99.90
6098;DHT22;3077;50.922;6.584;2022-12-10T18:29:28;2.20;99.90
6098;DHT22;3077;50.922;6.584;2022-12-10T18:31:53;2.20;99.90
6098;DHT22;3077;50.922;6.584;2022-12-10T18:34:19;2.10;99.90
6098;DHT22;3077;50.922;6.584;2022-12-10T18:36:47;2.10;99.90
6098;DHT22;3077;50.922;6.584;2022-12-10T18:41:43;2.00;99.90
6098;DHT22;3077;50.922;6.584;2022-12-10T18:44:09;1.90;1.00
6098;DHT22;3077;50.922;6.584;2022-12-10T18:46:37;1.90;99.90
6098;DHT22;3077;50.922;6.584;2022-12-10T18:49:03;1.90;1.00
6098;DHT22;3077;50.922;6.584;2022-12-10T18:51:29;1.90;1.00
6098;DHT22;3077;50.922;6.584;2022-12-10T18:53:56;1.80;1.00
6098;DHT22;3077;50.922;6.584;2022-12-10T18:56:27;1.70;1.00